Berta — V2BQ6 — position and weather

sailwx.info

Track history (hours):
 
Tides and Currents Weather Stations Pressure Air Temp Water Temp Dewpoint Dewpoint Depression Visibility Wind Speed Wind Dir Waves Ship Positions

Berta

Last reported at 2016-Jun-01 03:31 UTC. Time now 2016-Jun-01 03:41 UTC.
Position N 53°32' E 009°58'.

Length 118 m; draft 7.5 m.

Type: Cargo ship. MMSI: 304586000.

Date/timePositionNaut miles runAvg speedWind from/ knotsBaromVisibWave heightAir tempDewpointWater temp
2016-Jun-01 03:31N 53°32' E 009°58'0 0.0
2016-Jun-01 02:31N 53°32' E 009°58'0 0.0
2016-Jun-01 01:31N 53°32' E 009°58'0 0.0
2016-Jun-01 00:31N 53°32' E 009°58'0 0.0
2016-May-31 23:31N 53°32' E 009°58'0 0.0
2016-May-31 22:31N 53°32' E 009°58'0 0.0
2016-May-31 21:31N 53°32' E 009°58'0 0.0
2016-May-31 20:31N 53°32' E 009°58'0 0.0
2016-May-31 19:31N 53°32' E 009°58'0 0.0
2016-May-31 18:31N 53°32' E 009°58'0 0.0
2016-May-31 17:31N 53°32' E 009°58'2 1.8
2016-May-31 16:32N 53°32' E 009°55'0 0.0
2016-May-31 15:32N 53°32' E 009°55'0 0.0
2016-May-31 14:32N 53°32' E 009°55'0 0.0
2016-May-31 13:32N 53°32' E 009°55'0 0.0
2016-May-31 12:32N 53°32' E 009°55'0 0.0
2016-May-31 11:32N 53°32' E 009°55'0 0.0
2016-May-31 10:32N 53°32' E 009°55'0 0.0
2016-May-31 09:32N 53°32' E 009°55'0 0.0
2016-May-31 08:32N 53°32' E 009°55'0 0.0
2016-May-31 07:32N 53°32' E 009°55'0 0.0
2016-May-31 06:32N 53°32' E 009°55'0 0.0
2016-May-31 04:29N 53°32' E 009°55'0 0.0
2016-May-31 03:32N 53°32' E 009°55'0 0.0
2016-May-31 02:32N 53°32' E 009°55'0 0.0
2016-May-31 01:32N 53°32' E 009°55'0 0.0
2016-May-31 00:32N 53°32' E 009°55'0 0.0
2016-May-30 23:32N 53°32' E 009°55'0 0.0
2016-May-30 22:32N 53°32' E 009°55'0 0.0
2016-May-30 21:32N 53°32' E 009°55'0 0.0
2016-May-30 20:29N 53°32' E 009°55'0 0.0
2016-May-30 19:32N 53°32' E 009°55'0 0.0
2016-May-30 18:32N 53°32' E 009°55'0 0.0
2016-May-30 17:32N 53°32' E 009°55'0 0.0
2016-May-30 16:32N 53°32' E 009°55'0 0.4
2016-May-30 15:32N 53°32' E 009°55'0 0.0
2016-May-30 14:32N 53°32' E 009°55'0 0.0
2016-May-30 13:32N 53°32' E 009°55'0 0.0
2016-May-30 12:32N 53°32' E 009°55'0 0.0
2016-May-30 11:32N 53°32' E 009°55'0 0.0
2016-May-30 10:33N 53°32' E 009°55'0 0.0
2016-May-30 09:33N 53°32' E 009°55'0 0.1
2016-May-30 08:33N 53°32' E 009°55'2 1.8
2016-May-30 07:33N 53°30' E 009°56'0 0.3
2016-May-30 06:33N 53°30' E 009°56'0 0.0
2016-May-30 05:33N 53°30' E 009°56'0 0.0
2016-May-30 04:33N 53°30' E 009°56'7 7.5
2016-May-30 03:33N 53°34' E 009°45'1111.1
2016-May-30 02:34N 53°40' E 009°30'1111.2
2016-May-30 01:33N 53°50' E 009°21'10 9.7
2016-May-30 00:33N 53°52' E 009°05'10 9.6
2016-May-29 23:33N 53°50' E 008°49'9 9.2
2016-May-29 22:33N 53°57' E 008°38'10 9.7
2016-May-29 21:33N 53°59' E 008°22'1111.0
2016-May-29 20:33N 54°00' E 008°03'1111.5
2016-May-29 19:33N 54°06' E 007°46'1111.2
2016-May-29 18:33N 54°12' E 007°31'1110.5
2016-May-29 17:33N 54°22' E 007°23'9 9.0
2016-May-29 16:33N 54°30' E 007°16'9 9.1
2016-May-29 15:33N 54°38' E 007°09'9 9.3
2016-May-29 14:34N 54°46' E 007°02'9 9.4
2016-May-29 13:33N 54°55' E 006°55'9 9.4
2016-May-29 12:33N 55°03' E 006°48'9 9.3
2016-May-29 11:33N 55°12' E 006°44'9 8.9
2016-May-29 10:33N 55°21' E 006°41'9 8.8
2016-May-29 09:33N 55°30' E 006°37'9 8.7
2016-May-29 08:33N 55°38' E 006°33'5410.5
2016-May-29 03:22N 56°31' E 006°10'1011.7
2016-May-29 02:33N 56°40' E 006°06'1211.6
2016-May-29 01:33N 56°52' E 006°01'1111.4
2016-May-29 00:33N 57°03' E 005°56'1111.4
2016-May-28 23:33N 57°14' E 005°52'1111.3
2016-May-28 22:33N 57°25' E 005°46'1111.4
2016-May-28 21:33N 57°36' E 005°40'1111.6
2016-May-28 20:33N 57°47' E 005°34'1211.9
2016-May-28 19:33N 57°59' E 005°29'1212.0
2016-May-28 18:33N 58°10' E 005°23'1212.3
2016-May-28 17:33N 58°21' E 005°11'1312.6
2016-May-28 16:33N 58°30' E 004°55'1212.6
2016-May-28 15:33N 58°39' E 004°39'1312.8
2016-May-28 14:33N 58°49' E 004°23'1212.2
2016-May-28 13:34N 58°58' E 004°07'1211.8
2016-May-28 12:33N 59°10' E 004°03'1212.3
2016-May-28 11:33N 59°22' E 004°03'1212.4
2016-May-28 10:34N 59°34' E 004°03'1212.3
2016-May-28 09:33N 59°46' E 004°04'1312.5
2016-May-28 08:33N 59°59' E 004°04'1312.9
2016-May-28 07:33N 60°12' E 004°04'1313.1
2016-May-28 06:33N 60°25' E 004°03'1313.2
2016-May-28 05:33N 60°38' E 004°04'1313.2
2016-May-28 04:33N 60°51' E 004°03'1312.8
2016-May-28 03:33N 61°04' E 004°03'1212.6
2016-May-28 02:34N 61°17' E 004°02'1010.2
2016-May-28 01:33N 61°26' E 004°09'1312.8
2016-May-28 00:33N 61°37' E 004°24'1313.0
2016-May-27 23:34N 61°48' E 004°39'23 5.7
2016-May-27 19:33N 62°07' E 005°04'1212.2
2016-May-27 18:33N 62°18' E 005°15'1313.2
2016-May-27 17:33N 62°27' E 005°37'113 4.7
2016-May-26 17:25N 63°24' E 009°10'5 2.4
2016-May-26 15:24N 63°19' E 009°09'0 0.0
2016-May-26 14:17N 63°19' E 009°09'0 0.0
2016-May-26 12:23N 63°19' E 009°09'0 0.0
2016-May-26 11:10N 63°19' E 009°09'710.2
2016-May-26 10:28N 63°26' E 009°07'16311.6
2016-May-25 20:30N 61°55' E 004°14'1011.1
2016-May-25 19:34N 61°45' E 004°14'1211.9
2016-May-25 18:33N 61°33' E 004°14'1312.3
2016-May-25 17:31N 61°20' E 004°14'4012.2
2016-May-25 14:15N 60°40' E 004°14'912.6
2016-May-25 13:33N 60°31' E 004°14'1312.7
2016-May-25 12:33N 60°18' E 004°13'1313.0
2016-May-25 11:33N 60°05' E 004°13'1313.1
2016-May-25 10:33N 59°52' E 004°13'1312.9
2016-May-25 09:33N 59°39' E 004°14'4312.2
2016-May-25 06:05N 58°57' E 004°22'712.2
2016-May-25 05:32N 58°52' E 004°30'1212.1
2016-May-25 04:33N 58°43' E 004°45'1212.3
2016-May-25 03:33N 58°34' E 005°01'1212.3
2016-May-25 02:34N 58°25' E 005°16'1312.8
2016-May-25 01:32N 58°14' E 005°30'13812.3
2016-May-24 14:17N 55°59' E 006°24'2211.2
2016-May-24 12:17N 55°37' E 006°33'911.0
2016-May-24 11:29N 55°28' E 006°36'910.3
2016-May-24 10:33N 55°19' E 006°40'10 9.6
2016-May-24 09:33N 55°10' E 006°45'10 9.7
2016-May-24 08:33N 55°01' E 006°51'10 9.8
2016-May-24 07:33N 54°52' E 006°58'1111.1
2016-May-24 06:34N 54°42' E 007°06'1212.3
2016-May-24 05:33N 54°31' E 007°16'1313.1
2016-May-24 04:33N 54°19' E 007°26'1312.9
2016-May-24 03:33N 54°10' E 007°41'1313.3
2016-May-24 02:33N 54°03' E 008°01'1313.1
2016-May-24 01:33N 53°59' E 008°23'1211.8
2016-May-24 00:33N 53°55' E 008°41'1010.0
2016-May-23 23:33N 53°51' E 008°57'1010.3
2016-May-23 22:34N 53°53' E 009°14'1413.6
2016-May-23 21:33N 53°43' E 009°29'1313.2
2016-May-23 20:33N 53°34' E 009°45'6 5.7
2016-May-23 19:32N 53°32' E 009°55'0 0.0
2016-May-23 18:33N 53°32' E 009°55'0 0.0
2016-May-23 17:33N 53°32' E 009°55'0 0.0
2016-May-23 16:33N 53°32' E 009°55'0 0.0
2016-May-23 15:33N 53°32' E 009°55'0 0.0
2016-May-23 14:33N 53°32' E 009°55'0 0.0
2016-May-23 13:33N 53°32' E 009°55'0 0.0
2016-May-23 12:33N 53°32' E 009°55'0 0.0
2016-May-23 11:33N 53°32' E 009°55'0 0.0
2016-May-23 10:33N 53°32' E 009°55'0 0.0
2016-May-23 09:34N 53°32' E 009°55'2 1.8
2016-May-23 08:29N 53°31' E 009°56'0 0.0
2016-May-23 07:32N 53°31' E 009°56'0 0.0
2016-May-23 06:32N 53°31' E 009°56'0 0.0
2016-May-23 05:32N 53°31' E 009°56'3 2.8
2016-May-23 04:33N 53°32' E 009°53'1111.5
2016-May-23 03:33N 53°36' E 009°35'1313.2
2016-May-23 02:34N 53°47' E 009°23'1312.9
2016-May-23 01:34N 53°52' E 009°02'1312.9
2016-May-23 00:34N 53°54' E 008°41'1413.5
2016-May-22 23:33N 53°59' E 008°19'1313.0
2016-May-22 22:33N 54°02' E 007°58'1010.2
2016-May-22 21:33N 54°07' E 007°43'1010.3
2016-May-22 20:33N 54°14' E 007°30'1211.6
2016-May-22 19:33N 54°24' E 007°21'1313.1
2016-May-22 18:33N 54°36' E 007°10'1312.9
2016-May-22 17:33N 54°47' E 007°00'1312.5
2016-May-22 16:33N 54°59' E 006°51'1312.5
2016-May-22 15:33N 55°11' E 006°45'1312.5
2016-May-22 14:32N 55°23' E 006°40'  
Track history (hours):
 
Tides and Currents Weather Stations Pressure Air Temp Water Temp Dewpoint Dewpoint Depression Visibility Wind Speed Wind Dir Waves Ship Positions

Berta

Last reported at 2016-Jun-01 03:31 UTC. Time now 2016-Jun-01 03:41 UTC.
Position N 53°32' E 009°58'.

Length 118 m; draft 7.5 m.

Type: Cargo ship. MMSI: 304586000.

Date/timePositionNaut miles runAvg speedWind from/ knotsBaromVisibWave heightAir tempDewpointWater temp
2016-Jun-01 03:31N 53°32' E 009°58'0 0.0
2016-Jun-01 02:31N 53°32' E 009°58'0 0.0
2016-Jun-01 01:31N 53°32' E 009°58'0 0.0
2016-Jun-01 00:31N 53°32' E 009°58'0 0.0
2016-May-31 23:31N 53°32' E 009°58'0 0.0
2016-May-31 22:31N 53°32' E 009°58'0 0.0
2016-May-31 21:31N 53°32' E 009°58'0 0.0
2016-May-31 20:31N 53°32' E 009°58'0 0.0
2016-May-31 19:31N 53°32' E 009°58'0 0.0
2016-May-31 18:31N 53°32' E 009°58'0 0.0
2016-May-31 17:31N 53°32' E 009°58'2 1.8
2016-May-31 16:32N 53°32' E 009°55'0 0.0
2016-May-31 15:32N 53°32' E 009°55'0 0.0
2016-May-31 14:32N 53°32' E 009°55'0 0.0
2016-May-31 13:32N 53°32' E 009°55'0 0.0
2016-May-31 12:32N 53°32' E 009°55'0 0.0
2016-May-31 11:32N 53°32' E 009°55'0 0.0
2016-May-31 10:32N 53°32' E 009°55'0 0.0
2016-May-31 09:32N 53°32' E 009°55'0 0.0
2016-May-31 08:32N 53°32' E 009°55'0 0.0
2016-May-31 07:32N 53°32' E 009°55'0 0.0
2016-May-31 06:32N 53°32' E 009°55'0 0.0
2016-May-31 04:29N 53°32' E 009°55'0 0.0
2016-May-31 03:32N 53°32' E 009°55'0 0.0
2016-May-31 02:32N 53°32' E 009°55'0 0.0
2016-May-31 01:32N 53°32' E 009°55'0 0.0
2016-May-31 00:32N 53°32' E 009°55'0 0.0
2016-May-30 23:32N 53°32' E 009°55'0 0.0
2016-May-30 22:32N 53°32' E 009°55'0 0.0
2016-May-30 21:32N 53°32' E 009°55'0 0.0
2016-May-30 20:29N 53°32' E 009°55'0 0.0
2016-May-30 19:32N 53°32' E 009°55'0 0.0
2016-May-30 18:32N 53°32' E 009°55'0 0.0
2016-May-30 17:32N 53°32' E 009°55'0 0.0
2016-May-30 16:32N 53°32' E 009°55'0 0.4
2016-May-30 15:32N 53°32' E 009°55'0 0.0
2016-May-30 14:32N 53°32' E 009°55'0 0.0
2016-May-30 13:32N 53°32' E 009°55'0 0.0
2016-May-30 12:32N 53°32' E 009°55'0 0.0
2016-May-30 11:32N 53°32' E 009°55'0 0.0
2016-May-30 10:33N 53°32' E 009°55'0 0.0
2016-May-30 09:33N 53°32' E 009°55'0 0.1
2016-May-30 08:33N 53°32' E 009°55'2 1.8
2016-May-30 07:33N 53°30' E 009°56'0 0.3
2016-May-30 06:33N 53°30' E 009°56'0 0.0
2016-May-30 05:33N 53°30' E 009°56'0 0.0
2016-May-30 04:33N 53°30' E 009°56'7 7.5
2016-May-30 03:33N 53°34' E 009°45'1111.1
2016-May-30 02:34N 53°40' E 009°30'1111.2
2016-May-30 01:33N 53°50' E 009°21'10 9.7
2016-May-30 00:33N 53°52' E 009°05'10 9.6
2016-May-29 23:33N 53°50' E 008°49'9 9.2
2016-May-29 22:33N 53°57' E 008°38'10 9.7
2016-May-29 21:33N 53°59' E 008°22'1111.0
2016-May-29 20:33N 54°00' E 008°03'1111.5
2016-May-29 19:33N 54°06' E 007°46'1111.2
2016-May-29 18:33N 54°12' E 007°31'1110.5
2016-May-29 17:33N 54°22' E 007°23'9 9.0
2016-May-29 16:33N 54°30' E 007°16'9 9.1
2016-May-29 15:33N 54°38' E 007°09'9 9.3
2016-May-29 14:34N 54°46' E 007°02'9 9.4
2016-May-29 13:33N 54°55' E 006°55'9 9.4
2016-May-29 12:33N 55°03' E 006°48'9 9.3
2016-May-29 11:33N 55°12' E 006°44'9 8.9
2016-May-29 10:33N 55°21' E 006°41'9 8.8
2016-May-29 09:33N 55°30' E 006°37'9 8.7
2016-May-29 08:33N 55°38' E 006°33'5410.5
2016-May-29 03:22N 56°31' E 006°10'1011.7
2016-May-29 02:33N 56°40' E 006°06'1211.6
2016-May-29 01:33N 56°52' E 006°01'1111.4
2016-May-29 00:33N 57°03' E 005°56'1111.4
2016-May-28 23:33N 57°14' E 005°52'1111.3
2016-May-28 22:33N 57°25' E 005°46'1111.4
2016-May-28 21:33N 57°36' E 005°40'1111.6
2016-May-28 20:33N 57°47' E 005°34'1211.9
2016-May-28 19:33N 57°59' E 005°29'1212.0
2016-May-28 18:33N 58°10' E 005°23'1212.3
2016-May-28 17:33N 58°21' E 005°11'1312.6
2016-May-28 16:33N 58°30' E 004°55'1212.6
2016-May-28 15:33N 58°39' E 004°39'1312.8
2016-May-28 14:33N 58°49' E 004°23'1212.2
2016-May-28 13:34N 58°58' E 004°07'1211.8
2016-May-28 12:33N 59°10' E 004°03'1212.3
2016-May-28 11:33N 59°22' E 004°03'1212.4
2016-May-28 10:34N 59°34' E 004°03'1212.3
2016-May-28 09:33N 59°46' E 004°04'1312.5
2016-May-28 08:33N 59°59' E 004°04'1312.9
2016-May-28 07:33N 60°12' E 004°04'1313.1
2016-May-28 06:33N 60°25' E 004°03'1313.2
2016-May-28 05:33N 60°38' E 004°04'1313.2
2016-May-28 04:33N 60°51' E 004°03'1312.8
2016-May-28 03:33N 61°04' E 004°03'1212.6
2016-May-28 02:34N 61°17' E 004°02'1010.2
2016-May-28 01:33N 61°26' E 004°09'1312.8
2016-May-28 00:33N 61°37' E 004°24'1313.0
2016-May-27 23:34N 61°48' E 004°39'23 5.7
2016-May-27 19:33N 62°07' E 005°04'1212.2
2016-May-27 18:33N 62°18' E 005°15'1313.2
2016-May-27 17:33N 62°27' E 005°37'113 4.7
2016-May-26 17:25N 63°24' E 009°10'5 2.4
2016-May-26 15:24N 63°19' E 009°09'0 0.0
2016-May-26 14:17N 63°19' E 009°09'0 0.0
2016-May-26 12:23N 63°19' E 009°09'0 0.0
2016-May-26 11:10N 63°19' E 009°09'710.2
2016-May-26 10:28N 63°26' E 009°07'16311.6
2016-May-25 20:30N 61°55' E 004°14'1011.1
2016-May-25 19:34N 61°45' E 004°14'1211.9
2016-May-25 18:33N 61°33' E 004°14'1312.3
2016-May-25 17:31N 61°20' E 004°14'4012.2
2016-May-25 14:15N 60°40' E 004°14'912.6
2016-May-25 13:33N 60°31' E 004°14'1312.7
2016-May-25 12:33N 60°18' E 004°13'1313.0
2016-May-25 11:33N 60°05' E 004°13'1313.1
2016-May-25 10:33N 59°52' E 004°13'1312.9
2016-May-25 09:33N 59°39' E 004°14'4312.2
2016-May-25 06:05N 58°57' E 004°22'712.2
2016-May-25 05:32N 58°52' E 004°30'1212.1
2016-May-25 04:33N 58°43' E 004°45'1212.3
2016-May-25 03:33N 58°34' E 005°01'1212.3
2016-May-25 02:34N 58°25' E 005°16'1312.8
2016-May-25 01:32N 58°14' E 005°30'13812.3
2016-May-24 14:17N 55°59' E 006°24'2211.2
2016-May-24 12:17N 55°37' E 006°33'911.0
2016-May-24 11:29N 55°28' E 006°36'910.3
2016-May-24 10:33N 55°19' E 006°40'10 9.6
2016-May-24 09:33N 55°10' E 006°45'10 9.7
2016-May-24 08:33N 55°01' E 006°51'10 9.8
2016-May-24 07:33N 54°52' E 006°58'1111.1
2016-May-24 06:34N 54°42' E 007°06'1212.3
2016-May-24 05:33N 54°31' E 007°16'1313.1
2016-May-24 04:33N 54°19' E 007°26'1312.9
2016-May-24 03:33N 54°10' E 007°41'1313.3
2016-May-24 02:33N 54°03' E 008°01'1313.1
2016-May-24 01:33N 53°59' E 008°23'1211.8
2016-May-24 00:33N 53°55' E 008°41'1010.0
2016-May-23 23:33N 53°51' E 008°57'1010.3
2016-May-23 22:34N 53°53' E 009°14'1413.6
2016-May-23 21:33N 53°43' E 009°29'1313.2
2016-May-23 20:33N 53°34' E 009°45'6 5.7
2016-May-23 19:32N 53°32' E 009°55'0 0.0
2016-May-23 18:33N 53°32' E 009°55'0 0.0
2016-May-23 17:33N 53°32' E 009°55'0 0.0
2016-May-23 16:33N 53°32' E 009°55'0 0.0
2016-May-23 15:33N 53°32' E 009°55'0 0.0
2016-May-23 14:33N 53°32' E 009°55'0 0.0
2016-May-23 13:33N 53°32' E 009°55'0 0.0
2016-May-23 12:33N 53°32' E 009°55'0 0.0
2016-May-23 11:33N 53°32' E 009°55'0 0.0
2016-May-23 10:33N 53°32' E 009°55'0 0.0
2016-May-23 09:34N 53°32' E 009°55'2 1.8
2016-May-23 08:29N 53°31' E 009°56'0 0.0
2016-May-23 07:32N 53°31' E 009°56'0 0.0
2016-May-23 06:32N 53°31' E 009°56'0 0.0
2016-May-23 05:32N 53°31' E 009°56'3 2.8
2016-May-23 04:33N 53°32' E 009°53'1111.5
2016-May-23 03:33N 53°36' E 009°35'1313.2
2016-May-23 02:34N 53°47' E 009°23'1312.9
2016-May-23 01:34N 53°52' E 009°02'1312.9
2016-May-23 00:34N 53°54' E 008°41'1413.5
2016-May-22 23:33N 53°59' E 008°19'1313.0
2016-May-22 22:33N 54°02' E 007°58'1010.2
2016-May-22 21:33N 54°07' E 007°43'1010.3
2016-May-22 20:33N 54°14' E 007°30'1211.6
2016-May-22 19:33N 54°24' E 007°21'1313.1
2016-May-22 18:33N 54°36' E 007°10'1312.9
2016-May-22 17:33N 54°47' E 007°00'1312.5
2016-May-22 16:33N 54°59' E 006°51'1312.5
2016-May-22 15:33N 55°11' E 006°45'1312.5
2016-May-22 14:32N 55°23' E 006°40'  

Dump ship's entire track history